Fecha, hora, temperatura, viento dirección y velocidad, humedad y presión.

  • 16-02-2017 13:00:00 | 8.50°C | 0 |0.00 km/h | 90.00% | 0.00 hPa
  • 16-02-2017 13:00:00 | 8.50°C | 0 |0.00 km/h | 90.00% | 0.00 hPa
  • 16-02-2017 13:00:00 | 8.50°C | 0 |0.00 km/h | 90.00% | 0.00 hPa
  • 16-02-2017 13:00:00 | 8.50°C | 0 |0.00 km/h | 90.00% | 0.00 hPa
  • 16-02-2017 13:00:00 | 8.50°C | 0 |0.00 km/h | 90.00% | 0.00 hPa
  • 16-02-2017 13:00:00 | 8.50°C | 0 |0.00 km/h | 90.00% | 0.00 hPa
  • 16-02-2017 13:00:00 | 8.50°C | 0 |0.00 km/h | 90.00% | 0.00 hPa
  • 16-02-2017 11:00:00 | 5.20°C | 0 |0.00 km/h | 100.00% | 0.00 hPa
  • 16-02-2017 10:00:00 | 4.00°C | 0 |0.00 km/h | 100.00% | 0.00 hPa
  • 16-02-2017 09:00:00 | 3.60°C | 0 |0.00 km/h | 100.00% | 0.00 hPa
  • 16-02-2017 08:00:00 | 3.20°C | 0 |0.00 km/h | 100.00% | 0.00 hPa
  • 16-02-2017 07:00:00 | 3.00°C | 0 |0.00 km/h | 100.00% | 0.00 hPa
  • 16-02-2017 06:00:00 | 3.00°C | 0 |0.00 km/h | 100.00% | 0.00 hPa
  • 16-02-2017 05:00:00 | 2.80°C | 0 |0.00 km/h | 100.00% | 0.00 hPa
  • 16-02-2017 04:00:00 | 2.70°C | 0 |0.00 km/h | 100.00% | 0.00 hPa
  • 16-02-2017 03:00:00 | 0.00°C | 0 |0.00 km/h | 0.00% | 0.00 hPa
  • 16-02-2017 02:00:00 | 3.00°C | 0 |0.00 km/h | 100.00% | 0.00 hPa
  • 16-02-2017 01:00:00 | 3.70°C | 0 |0.00 km/h | 100.00% | 0.00 hPa
  • 16-02-2017 00:00:00 | 3.80°C | 0 |0.00 km/h | 100.00% | 0.00 hPa
  • 15-02-2017 23:00:00 | 3.90°C | 0 |0.00 km/h | 99.00% | 0.00 hPa
  • 15-02-2017 22:00:00 | 4.10°C | 0 |0.00 km/h | 97.00% | 0.00 hPa
  • 15-02-2017 21:00:00 | 4.80°C | 0 |0.00 km/h | 97.00% | 0.00 hPa
  • 15-02-2017 20:00:00 | 5.70°C | 0 |0.00 km/h | 94.00% | 0.00 hPa
  • 15-02-2017 19:00:00 | 6.80°C | 0 |0.00 km/h | 88.00% | 0.00 hPa
    • diseño web asturias Información sobre el estado de las mareas, altura de la marejada, temperatura del agua y otros datos de Gijón en Asturias.

      Surf Gijón